createdAt,value
2023-05-19T00:01:49.336Z,101402.69
2023-05-19T00:04:17.837Z,101378.53
2023-05-19T00:06:52.028Z,101375.78
2023-05-19T00:09:20.252Z,101379.22
2023-05-19T00:11:48.119Z,101370.09
2023-05-19T00:14:16.187Z,101380.03
2023-05-19T00:16:46.024Z,101381.34
2023-05-19T00:19:13.746Z,101384.94
2023-05-19T00:21:41.522Z,101380.03
2023-05-19T00:24:09.320Z,101339.44
2023-05-19T00:26:37.162Z,101336.50
2023-05-19T00:29:04.970Z,101330.94
2023-05-19T00:31:34.068Z,101339.44
2023-05-19T00:34:03.470Z,101330.28
2023-05-19T00:36:31.200Z,101317.09
2023-05-19T00:38:58.916Z,101287.91
2023-05-19T00:41:27.235Z,101287.75
2023-05-19T00:43:55.203Z,101278.78
2023-05-19T00:46:23.088Z,101241.47
2023-05-19T00:48:50.901Z,101247.34
2023-05-19T00:51:20.042Z,101249.28
2023-05-19T00:53:51.070Z,101243.44
2023-05-19T00:56:20.037Z,101227.31
2023-05-19T00:58:48.226Z,101223.22
2023-05-19T01:01:17.316Z,101235.91
2023-05-19T01:03:47.226Z,101234.78
2023-05-19T01:06:15.052Z,101228.28
2023-05-19T01:08:44.114Z,101217.97
2023-05-19T01:11:11.767Z,101212.44
2023-05-19T01:13:41.964Z,101189.97
2023-05-19T01:16:15.268Z,101176.78
2023-05-19T01:18:56.159Z,101157.56
2023-05-19T01:21:44.320Z,101145.53
2023-05-19T01:24:35.397Z,101129.06
2023-05-19T01:27:19.949Z,101125.31
2023-05-19T01:30:12.119Z,101141.75
2023-05-19T01:32:42.484Z,101119.59
2023-05-19T01:35:13.721Z,101117.19
2023-05-19T01:37:42.531Z,101109.53
2023-05-19T01:40:10.518Z,101103.16
2023-05-19T01:42:40.040Z,101107.09
2023-05-19T01:45:10.519Z,101099.59
2023-05-19T01:47:42.237Z,101104.81
2023-05-19T01:50:11.221Z,101097.31
2023-05-19T01:52:38.990Z,101088.03
2023-05-19T01:55:07.913Z,101072.75
2023-05-19T01:57:46.640Z,101072.38
2023-05-19T02:00:21.376Z,101074.19
2023-05-19T02:02:59.267Z,101062.94
2023-05-19T02:05:36.070Z,101032.53
2023-05-19T02:08:12.832Z,101002.56
2023-05-19T02:10:48.502Z,101032.84
2023-05-19T02:13:21.308Z,101041.00
2023-05-19T02:15:50.853Z,101035.94
2023-05-19T02:18:20.473Z,101037.56
2023-05-19T02:20:48.584Z,101053.19
2023-05-19T02:23:16.374Z,101032.84
2023-05-19T02:25:44.330Z,101016.56
2023-05-19T02:28:12.013Z,101026.47
2023-05-19T02:30:39.939Z,101026.31
2023-05-19T02:33:07.776Z,101011.06
2023-05-19T02:35:36.990Z,101010.03
2023-05-19T02:38:04.746Z,101011.22
2023-05-19T02:40:32.990Z,101013.97
2023-05-19T02:43:01.674Z,101017.03
2023-05-19T02:45:29.406Z,101012.97
2023-05-19T02:47:57.328Z,101025.81
2023-05-19T02:50:25.135Z,101026.63
2023-05-19T02:52:54.549Z,101030.38
2023-05-19T02:55:22.297Z,101035.75
2023-05-19T02:57:50.012Z,101029.25
2023-05-19T03:00:17.920Z,101014.25
2023-05-19T03:02:45.963Z,101005.47
2023-05-19T03:05:14.274Z,100979.91
2023-05-19T03:07:42.103Z,100996.38
2023-05-19T03:10:11.763Z,101000.94
2023-05-19T03:12:39.488Z,100996.53
2023-05-19T03:15:08.631Z,100964.97
2023-05-19T03:17:36.522Z,100976.84
2023-05-19T03:20:06.245Z,100964.63
2023-05-19T03:22:34.224Z,100936.81
2023-05-19T03:25:02.496Z,100919.13
2023-05-19T03:27:31.875Z,100926.09
2023-05-19T03:29:59.561Z,100927.06
2023-05-19T03:32:27.473Z,100923.81
2023-05-19T03:34:55.375Z,100924.63
2023-05-19T03:37:23.062Z,100917.00
2023-05-19T03:39:50.851Z,100921.41
2023-05-19T03:42:18.588Z,100918.00
2023-05-19T03:44:47.620Z,100901.03
2023-05-19T03:47:16.578Z,100905.41
2023-05-19T03:49:44.360Z,100897.63
2023-05-19T03:52:13.029Z,100903.50
2023-05-19T03:54:42.626Z,100893.03
2023-05-19T03:57:11.003Z,100898.44
2023-05-19T03:59:38.685Z,100896.81
2023-05-19T04:02:08.415Z,100891.59
2023-05-19T04:04:37.374Z,100910.78
2023-05-19T04:07:05.306Z,100908.84
2023-05-19T04:09:35.229Z,100904.00
2023-05-19T04:12:03.646Z,100893.03
2023-05-19T04:14:31.402Z,100894.88
2023-05-19T04:16:59.870Z,100883.97
2023-05-19T04:19:29.164Z,100887.75
2023-05-19T04:21:56.968Z,100869.81
2023-05-19T04:24:24.680Z,100867.41
2023-05-19T04:26:53.265Z,100859.72
2023-05-19T04:29:20.990Z,100852.44
2023-05-19T04:31:49.052Z,100845.44
2023-05-19T04:34:19.756Z,100830.66
2023-05-19T04:36:50.953Z,100798.94
2023-05-19T04:39:21.478Z,100754.25
2023-05-19T04:41:49.232Z,100667.28
2023-05-19T04:44:18.040Z,100626.59
2023-05-19T04:46:46.147Z,100590.50
2023-05-19T04:49:14.436Z,100582.00
2023-05-19T04:51:42.560Z,100570.28
2023-05-19T04:54:11.719Z,100568.34
2023-05-19T04:56:39.513Z,100572.06
2023-05-19T04:59:07.321Z,100558.06
2023-05-19T05:01:35.455Z,100527.00
2023-05-19T05:04:03.593Z,100505.78
2023-05-19T05:06:31.817Z,100495.38
2023-05-19T05:09:00.001Z,100486.25
2023-05-19T05:11:29.672Z,100480.97
2023-05-19T05:13:58.155Z,100461.66
2023-05-19T05:16:26.929Z,100471.75
2023-05-19T05:18:55.194Z,100482.16
2023-05-19T05:21:23.816Z,100481.81
2023-05-19T05:23:52.404Z,100476.31
2023-05-19T05:26:23.285Z,100459.03
2023-05-19T05:28:52.531Z,100440.25
2023-05-19T05:31:20.236Z,100455.53
2023-05-19T05:33:47.994Z,100446.00
2023-05-19T05:36:15.734Z,100446.94
2023-05-19T05:38:43.460Z,100440.09
2023-05-19T05:41:11.221Z,100435.41
2023-05-19T05:43:38.885Z,100440.47
2023-05-19T05:46:08.138Z,100424.94
2023-05-19T05:48:36.717Z,100428.06
2023-05-19T05:51:05.288Z,100416.31
2023-05-19T05:53:38.096Z,100408.69
2023-05-19T05:56:06.702Z,100407.66
2023-05-19T05:58:37.235Z,100416.91
2023-05-19T06:01:05.730Z,100428.50
2023-05-19T06:03:34.910Z,100433.53
2023-05-19T06:06:02.761Z,100445.47
2023-05-19T06:08:30.568Z,100447.00
2023-05-19T06:10:59.039Z,100459.75
2023-05-19T06:13:26.932Z,100461.88
2023-05-19T06:15:54.808Z,100469.06
2023-05-19T06:18:22.673Z,100486.00
2023-05-19T06:20:51.820Z,100500.72
2023-05-19T06:23:19.574Z,100482.66
2023-05-19T06:25:47.461Z,100484.66
2023-05-19T06:28:15.150Z,100529.06
2023-05-19T06:30:42.875Z,100525.91
2023-05-19T06:33:10.896Z,100519.56
2023-05-19T06:35:38.711Z,100535.38
2023-05-19T06:38:07.817Z,100544.19
2023-05-19T06:40:36.081Z,100541.88
2023-05-19T06:43:05.033Z,100586.00
2023-05-19T06:45:32.968Z,100608.81
2023-05-19T06:48:00.964Z,100660.34
2023-05-19T06:50:28.828Z,100656.16
2023-05-19T06:52:57.308Z,100691.06
2023-05-19T06:55:26.758Z,100748.13
2023-05-19T06:57:54.537Z,100737.25
2023-05-19T07:00:24.032Z,100765.59
2023-05-19T07:02:52.175Z,100769.53
2023-05-19T07:05:20.506Z,100805.94
2023-05-19T07:07:48.186Z,100819.34
2023-05-19T07:10:15.927Z,100849.25
2023-05-19T07:12:45.327Z,100873.50
2023-05-19T07:15:13.035Z,100892.88
2023-05-19T07:17:40.852Z,100922.97
2023-05-19T07:20:10.121Z,100940.72
2023-05-19T07:22:39.615Z,100968.78
2023-05-19T07:25:08.353Z,100976.66
2023-05-19T07:27:36.683Z,101014.59
2023-05-19T07:30:06.662Z,101032.31
2023-05-19T07:32:34.539Z,101065.25
2023-05-19T07:35:02.351Z,101080.97
2023-05-19T07:37:30.098Z,101092.75
2023-05-19T07:39:57.952Z,101104.31
2023-05-19T07:42:25.773Z,101162.00
2023-05-19T07:44:53.512Z,101185.19
2023-05-19T07:47:22.596Z,101186.84
2023-05-19T07:49:51.856Z,101158.16
2023-05-19T07:52:19.876Z,101176.50
2023-05-19T07:54:47.591Z,101150.97
2023-05-19T07:57:15.998Z,101169.09
2023-05-19T07:59:43.700Z,101250.91
2023-05-19T08:02:11.454Z,101235.72
2023-05-19T08:04:40.720Z,101237.91
2023-05-19T08:07:08.676Z,101441.47
2023-05-19T08:09:36.647Z,101410.97
2023-05-19T08:12:05.306Z,101377.06
2023-05-19T08:14:33.854Z,101458.09
2023-05-19T08:17:01.602Z,101514.50
2023-05-19T08:19:29.349Z,101689.69
2023-05-19T08:22:01.142Z,101698.47
2023-05-19T08:24:30.201Z,101799.69
2023-05-19T08:26:57.917Z,101965.75
2023-05-19T08:29:25.915Z,101922.63
2023-05-19T08:31:54.188Z,101980.09
2023-05-19T08:34:22.279Z,101976.97
2023-05-19T08:36:50.100Z,102085.59
2023-05-19T08:39:24.141Z,102151.72
2023-05-19T08:41:51.907Z,102198.09
2023-05-19T08:44:19.823Z,102223.09
2023-05-19T08:46:48.657Z,102210.88
2023-05-19T08:49:25.587Z,102233.84
2023-05-19T08:52:07.302Z,102204.69
2023-05-19T08:54:46.915Z,102204.31
2023-05-19T08:57:15.330Z,102271.09
2023-05-19T08:59:44.431Z,102331.72
2023-05-19T09:02:14.294Z,102343.91
2023-05-19T09:04:45.813Z,102302.31
2023-05-19T09:07:15.263Z,102315.75
2023-05-19T09:09:44.608Z,102358.94
2023-05-19T09:12:12.629Z,102364.19
2023-05-19T09:14:40.657Z,102378.59
2023-05-19T09:17:08.618Z,102397.44
2023-05-19T09:19:36.478Z,102386.00
2023-05-19T09:22:04.690Z,102352.50
2023-05-19T09:24:34.858Z,102342.16
2023-05-19T09:27:03.995Z,102331.66
2023-05-19T09:29:31.732Z,102326.06
2023-05-19T09:32:01.073Z,102343.16
2023-05-19T09:34:28.974Z,102375.31
2023-05-19T09:36:58.065Z,102377.00
2023-05-19T09:39:26.155Z,102357.47
2023-05-19T09:41:54.674Z,102398.44
2023-05-19T09:44:30.285Z,102422.38
2023-05-19T09:46:58.508Z,102410.84
2023-05-19T09:49:29.585Z,102445.47
2023-05-19T09:51:58.060Z,102451.59
2023-05-19T09:54:27.576Z,102476.88
2023-05-19T09:56:59.847Z,102438.03
2023-05-19T09:59:32.085Z,102439.13
2023-05-19T10:02:02.518Z,102501.97
2023-05-19T10:04:32.437Z,102497.97
2023-05-19T10:07:01.552Z,102453.59
2023-05-19T10:09:30.589Z,102517.50
2023-05-19T10:11:59.235Z,102495.38
2023-05-19T10:14:29.555Z,102380.91
2023-05-19T10:16:58.562Z,102409.06
2023-05-19T10:19:27.923Z,102491.28
2023-05-19T10:21:56.636Z,102502.47
2023-05-19T10:24:24.529Z,102511.16
2023-05-19T10:26:56.393Z,102471.13
2023-05-19T10:29:28.426Z,102436.81
2023-05-19T10:32:00.649Z,102436.88
2023-05-19T10:34:50.707Z,102490.47
2023-05-19T10:37:31.253Z,102447.88
2023-05-19T10:39:59.964Z,102435.00
2023-05-19T10:42:45.947Z,102465.44
2023-05-19T10:45:18.745Z,102462.19
2023-05-19T10:47:48.117Z,102483.78
2023-05-19T10:50:17.441Z,102393.75
2023-05-19T10:52:45.635Z,102443.31
2023-05-19T10:55:15.805Z,102376.72
2023-05-19T10:57:56.731Z,102472.28
2023-05-19T11:00:32.482Z,102471.34
2023-05-19T11:03:15.136Z,102460.16
2023-05-19T11:05:45.258Z,102467.16
2023-05-19T11:08:13.987Z,102428.38
2023-05-19T11:10:45.165Z,102490.25
2023-05-19T11:13:22.983Z,102494.88
2023-05-19T11:15:51.035Z,102488.31
2023-05-19T11:18:20.534Z,102479.25
2023-05-19T11:20:58.000Z,102488.66
2023-05-19T11:23:27.074Z,102493.72
2023-05-19T11:25:54.918Z,102400.63
2023-05-19T11:28:26.027Z,102424.63
2023-05-19T11:30:57.754Z,102487.84
2023-05-19T11:33:27.807Z,102455.22
2023-05-19T11:35:58.151Z,102414.63
2023-05-19T11:38:26.322Z,102420.53
2023-05-19T11:40:55.125Z,102445.84
2023-05-19T11:43:24.561Z,102472.34
2023-05-19T11:45:52.728Z,102485.50
2023-05-19T11:48:22.225Z,102460.84
2023-05-19T11:50:52.518Z,102465.72
2023-05-19T11:53:21.051Z,102471.44
2023-05-19T11:55:50.149Z,102463.97
2023-05-19T11:58:18.156Z,102478.31
2023-05-19T12:00:47.691Z,102487.47
2023-05-19T12:03:17.407Z,102477.13
2023-05-19T12:05:47.568Z,102491.31
2023-05-19T12:08:18.320Z,102491.22
2023-05-19T12:10:49.339Z,102472.75
2023-05-19T12:13:17.134Z,102496.38
2023-05-19T12:15:44.994Z,102489.94
2023-05-19T12:18:12.832Z,102457.78
2023-05-19T12:20:40.714Z,102464.97
2023-05-19T12:23:08.528Z,102459.84
2023-05-19T12:25:38.336Z,102461.81
2023-05-19T12:28:06.502Z,102451.78
2023-05-19T12:30:35.351Z,102439.75
2023-05-19T12:33:04.238Z,102471.03
2023-05-19T12:35:34.174Z,102430.88
2023-05-19T12:38:05.012Z,102437.22
2023-05-19T12:40:34.364Z,102454.94
2023-05-19T12:43:04.003Z,102464.00
2023-05-19T12:45:35.573Z,102456.13
2023-05-19T12:48:05.292Z,102412.66
2023-05-19T12:50:34.568Z,102441.56
2023-05-19T12:53:02.635Z,102449.03
2023-05-19T12:55:31.076Z,102445.97
2023-05-19T12:57:59.142Z,102439.59
2023-05-19T13:00:31.054Z,102446.28
2023-05-19T13:03:01.388Z,102451.03
2023-05-19T13:05:31.199Z,102454.66
2023-05-19T13:08:00.405Z,102445.75
2023-05-19T13:10:29.016Z,102453.28
2023-05-19T13:12:57.598Z,102432.91
2023-05-19T13:15:27.232Z,102433.84
2023-05-19T13:17:56.534Z,102429.72
2023-05-19T13:20:27.647Z,102431.69
2023-05-19T13:22:57.430Z,102436.03
2023-05-19T13:25:25.443Z,102431.81
2023-05-19T13:27:52.965Z,102424.81
2023-05-19T13:30:21.125Z,102435.34
2023-05-19T13:32:49.179Z,102440.53
2023-05-19T13:35:18.323Z,102433.34
2023-05-19T13:37:46.382Z,102426.59
2023-05-19T13:40:15.711Z,102424.66
2023-05-19T13:42:43.402Z,102416.03
2023-05-19T13:45:11.763Z,102424.72
2023-05-19T13:47:39.892Z,102419.53
2023-05-19T13:50:08.568Z,102423.31
2023-05-19T13:52:37.756Z,102415.53
2023-05-19T13:55:07.922Z,102413.53
2023-05-19T13:57:35.608Z,102412.34
2023-05-19T14:00:04.639Z,102411.97
2023-05-19T14:02:34.492Z,102407.13
2023-05-19T14:05:02.773Z,102401.47
2023-05-19T14:07:30.600Z,102400.22
2023-05-19T14:09:59.757Z,102396.94
2023-05-19T14:12:35.376Z,102395.16
2023-05-19T14:15:09.148Z,102391.81
2023-05-19T14:17:37.733Z,102403.38
2023-05-19T14:20:07.448Z,102400.09
2023-05-19T14:22:35.381Z,102383.78
2023-05-19T14:25:04.410Z,102388.44
2023-05-19T14:27:32.207Z,102384.34
2023-05-19T14:29:59.944Z,102386.19
2023-05-19T14:32:30.256Z,102389.34
2023-05-19T14:34:58.593Z,102378.88
2023-05-19T14:37:28.844Z,102379.72
2023-05-19T14:39:58.323Z,102378.16
2023-05-19T14:42:27.412Z,102380.66
2023-05-19T14:44:55.179Z,102382.13
2023-05-19T14:47:22.928Z,102378.84
2023-05-19T14:49:50.830Z,102384.78
2023-05-19T14:52:18.880Z,102380.13
2023-05-19T14:54:46.473Z,102378.38
2023-05-19T14:57:14.270Z,102373.34
2023-05-19T14:59:43.616Z,102371.72
2023-05-19T15:02:12.693Z,102377.66
2023-05-19T15:04:40.374Z,102372.00
2023-05-19T15:07:10.642Z,102376.38
2023-05-19T15:09:39.115Z,102368.91
2023-05-19T15:12:07.240Z,102367.06
2023-05-19T15:14:34.835Z,102368.81
2023-05-19T15:17:04.068Z,102359.56
2023-05-19T15:19:31.869Z,102354.72
2023-05-19T15:21:59.603Z,102356.81
2023-05-19T15:24:27.943Z,102360.34
2023-05-19T15:26:56.216Z,102368.69
2023-05-19T15:29:23.966Z,102353.84
2023-05-19T15:31:52.403Z,102357.88
2023-05-19T15:34:21.967Z,102348.53
2023-05-19T15:36:49.727Z,102360.34
2023-05-19T15:39:17.475Z,102351.94
2023-05-19T15:41:45.309Z,102349.44
2023-05-19T15:44:13.250Z,102358.59
2023-05-19T15:46:41.156Z,102360.56
2023-05-19T15:49:09.130Z,102356.84
2023-05-19T15:51:41.849Z,102355.22
2023-05-19T15:54:09.608Z,102348.03
2023-05-19T15:56:37.387Z,102333.16
2023-05-19T15:59:05.091Z,102349.00
2023-05-19T16:01:33.307Z,102328.59
2023-05-19T16:04:03.709Z,102336.25
2023-05-19T16:06:32.171Z,102330.16
2023-05-19T16:09:01.379Z,102328.47
2023-05-19T16:11:29.251Z,102337.31
2023-05-19T16:13:57.010Z,102330.09
2023-05-19T16:16:24.711Z,102327.88
2023-05-19T16:18:52.531Z,102329.78
2023-05-19T16:21:21.383Z,102322.44
2023-05-19T16:23:49.183Z,102319.69
2023-05-19T16:26:18.313Z,102317.81
2023-05-19T16:28:46.138Z,102319.84
2023-05-19T16:31:13.871Z,102319.56
2023-05-19T16:33:41.620Z,102325.22
2023-05-19T16:36:09.433Z,102312.03
2023-05-19T16:38:37.181Z,102323.56
2023-05-19T16:41:05.329Z,102320.00
2023-05-19T16:43:34.524Z,102323.03
2023-05-19T16:46:03.498Z,102319.47
2023-05-19T16:48:31.432Z,102322.78
2023-05-19T16:50:59.485Z,102319.72
2023-05-19T16:53:27.296Z,102325.25
2023-05-19T16:55:55.034Z,102317.72
2023-05-19T16:58:22.757Z,102309.13
2023-05-19T17:00:53.945Z,102315.25
2023-05-19T17:03:21.896Z,102315.88
2023-05-19T17:05:49.899Z,102316.91
2023-05-19T17:08:17.705Z,102308.53
2023-05-19T17:10:45.888Z,102313.44
2023-05-19T17:13:13.696Z,102315.00
2023-05-19T17:15:43.207Z,102310.91
2023-05-19T17:18:13.196Z,102298.50
2023-05-19T17:20:41.560Z,102288.41
2023-05-19T17:23:09.396Z,102293.94
2023-05-19T17:25:37.311Z,102285.47
2023-05-19T17:28:05.529Z,102271.63
2023-05-19T17:30:34.635Z,102261.47
2023-05-19T17:33:02.550Z,102269.63
2023-05-19T17:35:31.672Z,102245.94
2023-05-19T17:38:00.622Z,102226.41
2023-05-19T17:40:28.545Z,102231.31
2023-05-19T17:42:56.341Z,102232.31
2023-05-19T17:45:24.123Z,102213.47
2023-05-19T17:47:51.941Z,102206.78
2023-05-19T17:50:19.814Z,102201.06
2023-05-19T17:52:49.465Z,102195.72
2023-05-19T17:55:17.817Z,102173.13
2023-05-19T17:57:47.254Z,102156.44
2023-05-19T18:00:16.293Z,102141.94
2023-05-19T18:02:44.931Z,102130.56
2023-05-19T18:05:13.880Z,102102.06
2023-05-19T18:07:43.522Z,102074.59
2023-05-19T18:10:16.119Z,102045.94
2023-05-19T18:12:44.042Z,102031.34
2023-05-19T18:15:12.772Z,102042.94
2023-05-19T18:17:40.544Z,102020.16
2023-05-19T18:20:09.432Z,102007.75
2023-05-19T18:22:37.139Z,102032.53
2023-05-19T18:25:05.499Z,102024.03
2023-05-19T18:27:34.663Z,102003.06
2023-05-19T18:30:02.379Z,101998.56
2023-05-19T18:32:30.050Z,102007.91
2023-05-19T18:34:58.088Z,102016.41
2023-05-19T18:37:25.878Z,101982.44
2023-05-19T18:39:53.846Z,101970.69
2023-05-19T18:42:22.338Z,101969.25
2023-05-19T18:44:51.748Z,101980.00
2023-05-19T18:47:19.981Z,101968.53
2023-05-19T18:49:47.701Z,101962.81
2023-05-19T18:52:15.666Z,101934.09
2023-05-19T18:54:45.911Z,101926.19
2023-05-19T18:57:14.631Z,101948.16
2023-05-19T18:59:42.347Z,101943.66
2023-05-19T19:02:11.458Z,101929.22
2023-05-19T19:04:39.386Z,101929.81
2023-05-19T19:07:07.223Z,101930.63
2023-05-19T19:09:35.713Z,101917.63
2023-05-19T19:12:03.528Z,101896.19
2023-05-19T19:14:31.706Z,101908.59
2023-05-19T19:16:59.547Z,101918.28
2023-05-19T19:19:30.517Z,101905.63
2023-05-19T19:21:58.364Z,101948.13
2023-05-19T19:24:26.702Z,101956.19
2023-05-19T19:26:54.403Z,101950.03
2023-05-19T19:29:22.306Z,101954.66
2023-05-19T19:31:50.135Z,101955.22
2023-05-19T19:34:19.874Z,101957.84
2023-05-19T19:36:49.633Z,101919.00
2023-05-19T19:39:17.386Z,101881.41
2023-05-19T19:41:45.284Z,101839.97
2023-05-19T19:44:13.533Z,101839.22
2023-05-19T19:46:41.372Z,101846.03
2023-05-19T19:49:09.252Z,101873.56
2023-05-19T19:51:36.945Z,101840.13
2023-05-19T19:54:06.257Z,101912.38
2023-05-19T19:56:34.064Z,101925.50
2023-05-19T19:59:01.856Z,101938.69
2023-05-19T20:01:29.768Z,101943.44
2023-05-19T20:03:58.083Z,101964.75
2023-05-19T20:06:26.023Z,101968.97
2023-05-19T20:08:53.931Z,101959.75
2023-05-19T20:11:24.542Z,101955.38
2023-05-19T20:13:52.957Z,101929.81
2023-05-19T20:16:20.804Z,101919.19
2023-05-19T20:18:48.750Z,101899.72
2023-05-19T20:21:16.625Z,101889.53
2023-05-19T20:23:44.407Z,101868.78
2023-05-19T20:26:13.383Z,101885.34
2023-05-19T20:28:43.296Z,101868.22
2023-05-19T20:31:11.256Z,101850.38
2023-05-19T20:33:39.175Z,101854.28
2023-05-19T20:36:08.084Z,101841.84
2023-05-19T20:38:35.880Z,101844.47
2023-05-19T20:41:03.905Z,101867.44
2023-05-19T20:43:33.213Z,101859.56
2023-05-19T20:46:03.800Z,101878.97
2023-05-19T20:48:31.825Z,101845.97
2023-05-19T20:50:59.668Z,101854.13
2023-05-19T20:53:27.649Z,101865.09
2023-05-19T20:55:55.683Z,101877.00
2023-05-19T20:58:26.653Z,101865.66
2023-05-19T21:00:57.830Z,101865.94
2023-05-19T21:03:28.621Z,101874.47
2023-05-19T21:05:56.743Z,101848.16
2023-05-19T21:08:25.662Z,101863.50
2023-05-19T21:10:53.495Z,101871.56
2023-05-19T21:13:21.352Z,101853.78
2023-05-19T21:15:49.492Z,101879.16
2023-05-19T21:18:17.198Z,101866.09
2023-05-19T21:20:46.341Z,101861.47
2023-05-19T21:23:14.237Z,101851.41
2023-05-19T21:25:44.568Z,101874.72
2023-05-19T21:28:13.356Z,101871.00
2023-05-19T21:30:41.595Z,101870.53
2023-05-19T21:33:09.687Z,101882.94
2023-05-19T21:35:37.976Z,101879.38
2023-05-19T21:38:22.180Z,101877.13
2023-05-19T21:40:51.461Z,101873.00
2023-05-19T21:43:19.596Z,101881.06
2023-05-19T21:45:47.398Z,101895.00
2023-05-19T21:48:15.174Z,101896.06
2023-05-19T21:50:42.980Z,101888.84
2023-05-19T21:53:12.165Z,101903.13
2023-05-19T21:55:40.088Z,101899.88
2023-05-19T21:58:08.065Z,101915.94
2023-05-19T22:00:36.770Z,101907.63
2023-05-19T22:03:05.276Z,101899.72
2023-05-19T22:05:35.491Z,101927.63
2023-05-19T22:08:03.662Z,101921.38
2023-05-19T22:10:33.101Z,101909.22
2023-05-19T22:13:01.273Z,101890.84
2023-05-19T22:15:28.941Z,101897.34
2023-05-19T22:17:56.792Z,101907.91
2023-05-19T22:20:24.496Z,101902.03
2023-05-19T22:22:52.234Z,101914.41
2023-05-19T22:25:20.200Z,101912.59
2023-05-19T22:27:49.212Z,101916.47
2023-05-19T22:30:17.209Z,101923.72
2023-05-19T22:32:45.012Z,101922.78
2023-05-19T22:35:13.142Z,101906.78
2023-05-19T22:37:41.057Z,101910.97
2023-05-19T22:40:09.692Z,101897.91
2023-05-19T22:42:37.311Z,101901.41
2023-05-19T22:45:07.593Z,101900.94
2023-05-19T22:47:35.457Z,101867.06
2023-05-19T22:50:03.499Z,101864.63
2023-05-19T22:52:31.258Z,101842.81
2023-05-19T22:54:59.068Z,101858.03
2023-05-19T22:57:26.712Z,101871.22
2023-05-19T22:59:54.407Z,101863.69
2023-05-19T23:02:23.543Z,101841.72
2023-05-19T23:04:51.189Z,101844.56
2023-05-19T23:07:18.986Z,101840.69
2023-05-19T23:09:46.704Z,101846.53
2023-05-19T23:12:14.428Z,101834.25
2023-05-19T23:14:42.182Z,101828.00
2023-05-19T23:17:10.136Z,101830.34
2023-05-19T23:19:39.227Z,101839.03
2023-05-19T23:22:06.908Z,101824.59
2023-05-19T23:24:34.730Z,101825.47
2023-05-19T23:27:02.536Z,101826.91
2023-05-19T23:29:30.398Z,101837.22
2023-05-19T23:31:58.134Z,101825.63
2023-05-19T23:34:25.857Z,101825.75
2023-05-19T23:36:54.985Z,101837.56
2023-05-19T23:39:25.180Z,101825.63
2023-05-19T23:41:52.912Z,101811.75
2023-05-19T23:44:20.605Z,101804.88
2023-05-19T23:46:48.354Z,101796.34
2023-05-19T23:49:16.176Z,101787.38
2023-05-19T23:51:43.991Z,101768.22
2023-05-19T23:54:13.116Z,101775.91
2023-05-19T23:56:41.082Z,101773.16
2023-05-19T23:59:08.765Z,101761.72
